createdAt,value
2017-10-12T00:00:42.839Z,3.70
2017-10-12T00:01:42.842Z,3.30
2017-10-12T00:02:42.841Z,3.20
2017-10-12T00:03:42.840Z,3.30
2017-10-12T00:04:42.836Z,3.30
2017-10-12T00:05:42.833Z,2.80
2017-10-12T00:06:42.832Z,3.30
2017-10-12T00:07:42.831Z,3.30
2017-10-12T00:08:42.827Z,3.20
2017-10-12T00:09:42.822Z,3.30
2017-10-12T00:10:42.820Z,3.90
2017-10-12T00:11:42.819Z,3.70
2017-10-12T00:12:42.816Z,3.50
2017-10-12T00:13:42.814Z,4.00
2017-10-12T00:14:42.811Z,4.20
2017-10-12T00:15:42.811Z,2.90
2017-10-12T00:16:42.807Z,3.80
2017-10-12T00:17:42.810Z,3.30
2017-10-12T00:18:42.810Z,3.50
2017-10-12T00:19:42.806Z,3.70
2017-10-12T00:20:42.805Z,3.40
2017-10-12T00:21:42.802Z,3.20
2017-10-12T00:22:42.801Z,3.40
2017-10-12T00:23:42.798Z,3.10
2017-10-12T00:24:42.794Z,3.40
2017-10-12T00:25:42.790Z,3.30
2017-10-12T00:26:42.788Z,3.30
2017-10-12T00:27:42.785Z,3.40
2017-10-12T00:28:42.785Z,3.80
2017-10-12T00:29:42.781Z,3.40
2017-10-12T00:30:42.779Z,3.50
2017-10-12T00:31:42.778Z,3.80
2017-10-12T00:32:42.778Z,4.70
2017-10-12T00:33:42.778Z,3.80
2017-10-12T00:34:42.786Z,4.00
2017-10-12T00:35:42.774Z,3.20
2017-10-12T00:36:42.771Z,3.70
2017-10-12T00:37:42.769Z,3.30
2017-10-12T00:38:42.768Z,3.00
2017-10-12T00:39:42.766Z,3.30
2017-10-12T00:40:42.763Z,3.50
2017-10-12T00:41:42.758Z,3.70
2017-10-12T00:42:42.756Z,3.30
2017-10-12T00:43:42.754Z,3.90
2017-10-12T00:44:42.752Z,3.90
2017-10-12T00:45:42.750Z,4.00
2017-10-12T00:46:42.750Z,3.60
2017-10-12T00:47:42.746Z,3.00
2017-10-12T00:48:42.744Z,4.70
2017-10-12T00:49:42.746Z,3.50
2017-10-12T00:50:42.743Z,3.20
2017-10-12T00:51:42.742Z,3.20
2017-10-12T00:52:42.740Z,3.30
2017-10-12T00:53:42.739Z,3.70
2017-10-12T00:54:42.737Z,3.20
2017-10-12T00:55:42.733Z,3.30
2017-10-12T00:56:42.731Z,3.20
2017-10-12T00:57:42.728Z,3.40
2017-10-12T00:58:42.724Z,3.10
2017-10-12T00:59:42.723Z,3.00
2017-10-12T01:00:42.721Z,3.60
2017-10-12T01:01:42.724Z,3.20
2017-10-12T01:02:42.722Z,3.80
2017-10-12T01:03:42.720Z,3.30
2017-10-12T01:04:42.717Z,3.00
2017-10-12T01:05:42.711Z,3.30
2017-10-12T01:06:42.710Z,3.30
2017-10-12T01:07:42.708Z,3.50
2017-10-12T01:08:42.705Z,3.10
2017-10-12T01:09:42.703Z,3.90
2017-10-12T01:10:42.702Z,3.60
2017-10-12T01:11:42.701Z,3.30
2017-10-12T01:12:42.697Z,3.60
2017-10-12T01:13:42.700Z,2.80
2017-10-12T01:14:42.698Z,3.60
2017-10-12T01:15:42.696Z,3.50
2017-10-12T01:16:42.694Z,3.00
2017-10-12T01:17:42.692Z,3.60
2017-10-12T01:18:42.690Z,3.40
2017-10-12T01:19:42.688Z,3.40
2017-10-12T01:20:42.686Z,3.70
2017-10-12T01:21:42.680Z,3.80
2017-10-12T01:22:42.680Z,3.70
2017-10-12T01:23:42.677Z,3.50
2017-10-12T01:24:42.673Z,3.40
2017-10-12T01:25:42.671Z,3.30
2017-10-12T01:26:42.675Z,3.70
2017-10-12T01:27:42.669Z,3.70
2017-10-12T01:28:42.666Z,3.70
2017-10-12T01:29:42.667Z,3.60
2017-10-12T01:30:42.666Z,3.50
2017-10-12T01:31:42.665Z,3.70
2017-10-12T01:32:42.662Z,3.60
2017-10-12T01:33:42.660Z,3.50
2017-10-12T01:34:42.658Z,3.40
2017-10-12T01:35:42.657Z,3.70
2017-10-12T01:36:42.654Z,3.80
2017-10-12T01:37:42.647Z,3.60
2017-10-12T01:38:42.645Z,3.40
2017-10-12T01:39:42.645Z,3.80
2017-10-12T01:40:42.642Z,3.90
2017-10-12T01:41:42.641Z,3.80
2017-10-12T01:42:42.638Z,4.00
2017-10-12T01:43:42.635Z,3.70
2017-10-12T01:44:42.634Z,4.10
2017-10-12T01:45:42.636Z,3.90
2017-10-12T01:46:42.633Z,4.60
2017-10-12T01:47:42.633Z,4.20
2017-10-12T01:48:42.630Z,4.70
2017-10-12T01:49:42.628Z,3.70
2017-10-12T01:50:42.625Z,3.90
2017-10-12T01:51:42.624Z,4.30
2017-10-12T01:52:42.620Z,4.30
2017-10-12T01:53:42.615Z,5.00
2017-10-12T01:54:42.611Z,4.00
2017-10-12T01:55:42.609Z,4.10
2017-10-12T01:56:42.608Z,4.40
2017-10-12T01:57:42.606Z,3.70
2017-10-12T01:58:42.602Z,3.80
2017-10-12T01:59:42.600Z,3.80
2017-10-12T02:00:42.601Z,3.70
2017-10-12T02:01:42.601Z,4.20
2017-10-12T02:02:42.599Z,4.20
2017-10-12T02:03:42.595Z,3.30
2017-10-12T02:04:42.593Z,3.30
2017-10-12T02:05:42.587Z,3.70
2017-10-12T02:06:42.586Z,4.20
2017-10-12T02:07:42.583Z,4.30
2017-10-12T02:08:42.580Z,4.30
2017-10-12T02:09:42.583Z,4.60
2017-10-12T02:10:42.584Z,4.20
2017-10-12T02:11:42.578Z,4.00
2017-10-12T02:12:42.576Z,3.80
2017-10-12T02:13:42.573Z,4.00
2017-10-12T02:14:42.575Z,4.50
2017-10-12T02:15:42.570Z,4.20
2017-10-12T02:16:42.567Z,4.20
2017-10-12T02:17:42.560Z,4.10
2017-10-12T02:18:42.560Z,4.10
2017-10-12T02:19:42.557Z,3.90
2017-10-12T02:20:42.553Z,4.20
2017-10-12T02:21:42.551Z,4.00
2017-10-12T02:22:42.549Z,4.00
2017-10-12T02:23:42.546Z,4.00
2017-10-12T02:24:42.545Z,4.10
2017-10-12T02:25:42.547Z,4.30
2017-10-12T02:26:42.545Z,4.00
2017-10-12T02:27:42.543Z,4.30
2017-10-12T02:28:42.540Z,4.20
2017-10-12T02:29:42.538Z,4.00
2017-10-12T02:30:42.561Z,4.00
2017-10-12T02:31:42.539Z,4.00
2017-10-12T02:32:42.531Z,4.30
2017-10-12T02:33:42.526Z,4.40
2017-10-12T02:34:42.523Z,4.20
2017-10-12T02:35:42.523Z,3.70
2017-10-12T02:36:42.517Z,4.00
2017-10-12T02:37:42.516Z,4.00
2017-10-12T02:38:42.512Z,3.90
2017-10-12T02:39:42.511Z,4.00
2017-10-12T02:40:42.510Z,4.30
2017-10-12T02:41:42.511Z,4.20
2017-10-12T02:42:42.508Z,3.80
2017-10-12T02:43:42.511Z,3.70
2017-10-12T02:44:42.504Z,4.00
2017-10-12T02:45:42.501Z,4.50
2017-10-12T02:46:42.518Z,4.20
2017-10-12T02:47:42.498Z,4.00
2017-10-12T02:48:42.494Z,4.10
2017-10-12T02:49:42.487Z,3.90
2017-10-12T02:50:42.487Z,3.90
2017-10-12T02:51:42.483Z,4.60
2017-10-12T02:52:42.481Z,4.10
2017-10-12T02:53:42.480Z,4.40
2017-10-12T02:54:42.479Z,4.50
2017-10-12T02:55:42.475Z,4.00
2017-10-12T02:56:42.472Z,4.10
2017-10-12T02:57:42.475Z,3.90
2017-10-12T02:58:42.471Z,4.70
2017-10-12T02:59:42.470Z,4.10
2017-10-12T03:00:42.468Z,4.30
2017-10-12T03:01:42.465Z,3.90
2017-10-12T03:02:42.462Z,4.20
2017-10-12T03:03:42.460Z,4.10
2017-10-12T03:04:42.458Z,4.10
2017-10-12T03:05:42.453Z,5.10
2017-10-12T03:06:42.457Z,4.10
2017-10-12T03:07:42.446Z,4.60
2017-10-12T03:08:42.444Z,4.40
2017-10-12T03:09:42.442Z,4.80
2017-10-12T03:10:42.443Z,4.80
2017-10-12T03:11:42.437Z,5.10
2017-10-12T03:12:42.439Z,4.10
2017-10-12T03:13:42.435Z,4.10
2017-10-12T03:14:42.434Z,4.30
2017-10-12T03:15:42.432Z,4.50
2017-10-12T03:16:42.429Z,4.90
2017-10-12T03:17:42.427Z,4.70
2017-10-12T03:18:42.424Z,4.60
2017-10-12T03:19:42.423Z,4.50
2017-10-12T03:20:42.418Z,4.40
2017-10-12T03:21:42.412Z,4.40
2017-10-12T03:22:42.409Z,4.40
2017-10-12T03:23:42.408Z,5.50
2017-10-12T03:24:42.405Z,4.70
2017-10-12T03:25:42.402Z,4.40
2017-10-12T03:26:42.401Z,4.90
2017-10-12T03:27:42.397Z,4.10
2017-10-12T03:28:42.395Z,5.10
2017-10-12T03:29:42.396Z,4.20
2017-10-12T03:30:42.395Z,4.20
2017-10-12T03:31:42.395Z,4.50
2017-10-12T03:32:42.390Z,4.60
2017-10-12T03:33:42.388Z,4.50
2017-10-12T03:34:42.384Z,5.00
2017-10-12T03:35:42.389Z,4.60
2017-10-12T03:36:42.380Z,4.40
2017-10-12T03:37:42.374Z,4.60
2017-10-12T03:38:42.371Z,4.20
2017-10-12T03:39:42.377Z,4.10
2017-10-12T03:40:42.368Z,4.20
2017-10-12T03:41:42.364Z,4.60
2017-10-12T03:42:42.363Z,4.00
2017-10-12T03:43:42.360Z,4.30
2017-10-12T03:44:42.358Z,4.20
2017-10-12T03:45:42.359Z,4.40
2017-10-12T03:46:42.358Z,4.40
2017-10-12T03:47:42.356Z,4.50
2017-10-12T03:48:42.353Z,4.60
2017-10-12T03:49:42.350Z,4.30
2017-10-12T03:50:42.350Z,5.10
2017-10-12T03:51:42.347Z,4.40
2017-10-12T03:52:42.344Z,4.30
2017-10-12T03:53:42.337Z,4.40
2017-10-12T03:54:42.335Z,4.70
2017-10-12T03:55:42.333Z,4.20
2017-10-12T03:56:42.329Z,4.70
2017-10-12T03:57:42.327Z,4.30
2017-10-12T03:58:42.325Z,3.90
2017-10-12T03:59:42.324Z,4.40
2017-10-12T04:00:42.320Z,3.90
2017-10-12T04:01:42.323Z,4.90
2017-10-12T04:02:42.320Z,4.80
2017-10-12T04:03:42.319Z,4.30
2017-10-12T04:04:42.321Z,4.50
2017-10-12T04:05:42.313Z,4.50
2017-10-12T04:06:42.311Z,5.30
2017-10-12T04:07:42.308Z,5.50
2017-10-12T04:08:42.304Z,5.40
2017-10-12T04:09:42.299Z,5.10
2017-10-12T04:10:42.296Z,4.20
2017-10-12T04:11:42.292Z,4.90
2017-10-12T04:12:42.290Z,4.60
2017-10-12T04:13:42.292Z,5.00
2017-10-12T04:14:42.290Z,5.60
2017-10-12T04:15:42.292Z,5.30
2017-10-12T04:16:42.284Z,4.70
2017-10-12T04:17:42.278Z,4.70
2017-10-12T04:18:42.277Z,5.50
2017-10-12T04:19:42.272Z,5.10
2017-10-12T04:20:42.269Z,4.90
2017-10-12T04:21:42.267Z,5.80
2017-10-12T04:22:42.265Z,4.90
2017-10-12T04:23:42.261Z,5.60
2017-10-12T04:24:42.258Z,4.90
2017-10-12T04:25:42.260Z,4.90
2017-10-12T04:26:42.259Z,5.30
2017-10-12T04:27:42.256Z,5.00
2017-10-12T04:28:42.253Z,4.70
2017-10-12T04:29:42.250Z,5.40
2017-10-12T04:30:42.248Z,6.10
2017-10-12T04:31:42.246Z,5.70
2017-10-12T04:32:42.243Z,6.20
2017-10-12T04:33:42.237Z,5.60
2017-10-12T04:34:42.233Z,5.30
2017-10-12T04:35:42.232Z,5.50
2017-10-12T04:36:42.228Z,4.80
2017-10-12T04:37:42.234Z,4.90
2017-10-12T04:38:42.224Z,5.10
2017-10-12T04:39:42.222Z,5.40
2017-10-12T04:40:42.220Z,5.00
2017-10-12T04:41:42.222Z,5.60
2017-10-12T04:42:42.219Z,4.70
2017-10-12T04:43:42.216Z,4.80
2017-10-12T04:44:42.215Z,5.70
2017-10-12T04:45:42.213Z,5.60
2017-10-12T04:46:42.209Z,5.80
2017-10-12T04:47:42.209Z,5.10
2017-10-12T04:48:42.208Z,5.50
2017-10-12T04:49:42.199Z,6.10
2017-10-12T04:50:42.196Z,5.10
2017-10-12T04:51:42.195Z,5.20
2017-10-12T04:52:42.193Z,5.30
2017-10-12T04:53:42.205Z,5.50
2017-10-12T04:54:42.188Z,4.90
2017-10-12T04:55:42.186Z,5.00
2017-10-12T04:56:42.183Z,4.80
2017-10-12T04:57:42.186Z,5.40
2017-10-12T04:58:42.184Z,5.60
2017-10-12T04:59:42.181Z,5.50
2017-10-12T05:00:42.179Z,5.60
2017-10-12T05:01:42.176Z,5.40
2017-10-12T05:02:42.175Z,5.70
2017-10-12T05:03:42.172Z,5.40
2017-10-12T05:04:42.169Z,5.40
2017-10-12T05:05:42.162Z,5.30
2017-10-12T05:06:42.162Z,5.20
2017-10-12T05:07:42.158Z,5.50
2017-10-12T05:08:42.157Z,5.10
2017-10-12T05:09:42.157Z,5.20
2017-10-12T05:10:42.166Z,5.20
2017-10-12T05:11:42.150Z,5.00
2017-10-12T05:12:42.147Z,5.40
2017-10-12T05:13:42.150Z,5.50
2017-10-12T05:14:42.148Z,5.80
2017-10-12T05:15:42.147Z,5.40
2017-10-12T05:16:42.143Z,5.80
2017-10-12T05:17:42.136Z,6.20
2017-10-12T05:18:42.134Z,5.30
2017-10-12T05:19:42.138Z,5.50
2017-10-12T05:20:42.129Z,5.00
2017-10-12T05:21:42.131Z,4.90
2017-10-12T05:22:42.130Z,5.10
2017-10-12T05:23:42.128Z,5.50
2017-10-12T05:24:42.124Z,5.00
2017-10-12T05:25:42.120Z,4.80
2017-10-12T05:26:42.120Z,5.30
2017-10-12T05:27:42.119Z,5.40
2017-10-12T05:28:42.115Z,5.20
2017-10-12T05:29:42.107Z,4.80
2017-10-12T05:30:42.106Z,5.50
2017-10-12T05:31:42.105Z,5.50
2017-10-12T05:32:42.100Z,5.30
2017-10-12T05:33:42.100Z,5.90
2017-10-12T05:34:42.095Z,5.40
2017-10-12T05:35:42.093Z,5.40
2017-10-12T05:36:42.091Z,5.20
2017-10-12T05:37:42.093Z,6.30
2017-10-12T05:38:42.089Z,6.20
2017-10-12T05:39:42.089Z,5.50
2017-10-12T05:40:42.085Z,5.70
2017-10-12T05:41:42.082Z,5.50
2017-10-12T05:42:42.083Z,6.50
2017-10-12T05:43:42.078Z,7.10
2017-10-12T05:44:42.072Z,6.30
2017-10-12T05:45:42.065Z,5.50
2017-10-12T05:46:42.064Z,6.40
2017-10-12T05:47:42.061Z,6.80
2017-10-12T05:48:42.058Z,6.30
2017-10-12T05:49:42.054Z,5.40
2017-10-12T05:50:42.052Z,6.30
2017-10-12T05:51:42.049Z,5.70
2017-10-12T05:52:42.047Z,5.60
2017-10-12T05:53:42.046Z,5.90
2017-10-12T05:54:42.043Z,6.30
2017-10-12T05:55:42.040Z,6.20
2017-10-12T05:56:42.036Z,5.50
2017-10-12T05:57:42.034Z,6.10
2017-10-12T05:58:42.031Z,5.90
2017-10-12T05:59:42.027Z,6.20
2017-10-12T06:00:42.023Z,6.30
2017-10-12T06:01:42.017Z,7.00
2017-10-12T06:02:42.015Z,6.30
2017-10-12T06:03:42.018Z,6.40
2017-10-12T06:04:42.007Z,5.50
2017-10-12T06:05:42.003Z,5.60
2017-10-12T06:06:42.003Z,5.80
2017-10-12T06:07:41.996Z,6.20
2017-10-12T06:08:41.994Z,6.10
2017-10-12T06:09:41.995Z,6.50
2017-10-12T06:10:41.992Z,6.00
2017-10-12T06:11:41.989Z,6.30
2017-10-12T06:12:41.984Z,6.10
2017-10-12T06:13:41.983Z,6.00
2017-10-12T06:14:41.979Z,6.10
2017-10-12T06:15:41.975Z,5.70
2017-10-12T06:16:41.975Z,6.60
2017-10-12T06:17:41.965Z,5.80
2017-10-12T06:18:41.965Z,5.80
2017-10-12T06:19:41.960Z,5.40
2017-10-12T06:20:41.956Z,5.40
2017-10-12T06:21:41.958Z,6.10
2017-10-12T06:22:41.955Z,6.20
2017-10-12T06:23:41.953Z,6.40
2017-10-12T06:24:41.948Z,6.10
2017-10-12T06:25:41.942Z,5.60
2017-10-12T06:26:41.938Z,6.00
2017-10-12T06:27:41.938Z,6.30
2017-10-12T06:28:41.934Z,5.20
2017-10-12T06:29:41.931Z,6.20
2017-10-12T06:30:41.930Z,5.90
2017-10-12T06:31:41.928Z,5.80
2017-10-12T06:32:41.927Z,5.60
2017-10-12T06:33:41.929Z,6.30
2017-10-12T06:34:41.926Z,8.00
2017-10-12T06:35:41.929Z,7.20
2017-10-12T06:36:41.929Z,6.60
2017-10-12T06:37:41.922Z,6.60
2017-10-12T06:38:41.920Z,6.10
2017-10-12T06:39:41.919Z,6.50
2017-10-12T06:40:41.917Z,6.90
2017-10-12T06:41:41.910Z,6.10
2017-10-12T06:42:41.910Z,6.00
2017-10-12T06:43:41.907Z,6.70
2017-10-12T06:44:41.904Z,6.70
2017-10-12T06:45:41.904Z,6.30
2017-10-12T06:46:41.902Z,6.00
2017-10-12T06:47:41.901Z,5.40
2017-10-12T06:48:41.899Z,6.40
2017-10-12T06:49:41.902Z,6.00
2017-10-12T06:50:41.899Z,6.30
2017-10-12T06:51:41.897Z,6.40
2017-10-12T06:52:41.896Z,6.60
2017-10-12T06:53:41.895Z,6.40
2017-10-12T06:54:41.892Z,6.80
2017-10-12T06:55:41.891Z,5.90
2017-10-12T06:56:41.888Z,5.70
2017-10-12T06:57:41.882Z,5.80
2017-10-12T06:58:41.881Z,6.80
2017-10-12T06:59:41.885Z,6.20
2017-10-12T07:00:41.880Z,6.20
2017-10-12T07:01:41.877Z,5.60
2017-10-12T07:02:41.876Z,5.80
2017-10-12T07:03:41.874Z,5.40
2017-10-12T07:04:41.873Z,6.40
2017-10-12T07:05:41.876Z,6.00
2017-10-12T07:06:41.880Z,6.40
2017-10-12T07:07:41.907Z,6.20
2017-10-12T07:08:41.874Z,6.30
2017-10-12T07:09:41.874Z,6.40
2017-10-12T07:10:41.873Z,6.40
2017-10-12T07:11:41.876Z,6.70
2017-10-12T07:12:41.874Z,6.00
2017-10-12T07:13:41.870Z,6.10
2017-10-12T07:14:41.871Z,5.60
2017-10-12T07:15:41.875Z,6.50
2017-10-12T07:16:41.869Z,6.30
2017-10-12T07:17:41.871Z,6.10
2017-10-12T07:18:41.871Z,6.30
2017-10-12T07:19:41.871Z,6.50
2017-10-12T07:20:41.871Z,6.10
2017-10-12T07:21:41.876Z,5.80
2017-10-12T07:22:41.879Z,6.10
2017-10-12T07:23:41.877Z,5.60
2017-10-12T07:24:41.879Z,6.30
2017-10-12T07:25:41.875Z,6.00
2017-10-12T07:26:41.880Z,6.90
2017-10-12T07:27:41.877Z,6.30
2017-10-12T07:28:41.877Z,5.80
2017-10-12T07:29:41.884Z,5.90
2017-10-12T07:30:41.887Z,6.70
2017-10-12T07:31:41.886Z,6.30
2017-10-12T07:32:41.886Z,6.30
2017-10-12T07:33:41.885Z,6.80
2017-10-12T07:34:41.886Z,6.30
2017-10-12T07:35:41.889Z,5.60
2017-10-12T07:36:41.889Z,6.40
2017-10-12T07:37:41.885Z,5.70
2017-10-12T07:38:41.886Z,5.70
2017-10-12T07:39:41.889Z,6.00
2017-10-12T07:40:41.893Z,6.10
2017-10-12T07:41:41.889Z,5.80
2017-10-12T07:42:41.891Z,6.10
2017-10-12T07:43:41.892Z,5.70
2017-10-12T07:44:41.894Z,5.80
2017-10-12T07:45:41.899Z,6.30
2017-10-12T07:46:41.900Z,5.60
2017-10-12T07:47:41.901Z,5.40
2017-10-12T07:48:41.954Z,5.70
2017-10-12T07:49:41.905Z,6.40
2017-10-12T07:50:41.907Z,5.70
2017-10-12T07:51:41.908Z,6.00
2017-10-12T07:52:41.910Z,5.70
2017-10-12T07:53:41.906Z,5.50
2017-10-12T07:54:41.909Z,5.80
2017-10-12T07:55:41.911Z,6.30
2017-10-12T07:56:41.913Z,5.90
2017-10-12T07:57:41.914Z,4.80
2017-10-12T07:58:41.916Z,5.40
2017-10-12T07:59:41.923Z,6.00
2017-10-12T08:00:41.918Z,6.50
2017-10-12T08:01:41.925Z,6.00
2017-10-12T08:02:41.928Z,5.50
2017-10-12T08:03:41.928Z,5.10
2017-10-12T08:04:41.930Z,5.90
2017-10-12T08:05:41.932Z,5.80
2017-10-12T08:06:41.933Z,6.10
2017-10-12T08:07:41.935Z,5.60
2017-10-12T08:08:41.991Z,6.00
2017-10-12T08:09:41.932Z,5.60
2017-10-12T08:10:41.936Z,6.00
2017-10-12T08:11:41.936Z,5.30
2017-10-12T08:12:41.937Z,5.70
2017-10-12T08:13:41.938Z,6.00
2017-10-12T08:14:41.940Z,5.90
2017-10-12T08:15:41.941Z,6.40
2017-10-12T08:16:41.941Z,5.50
2017-10-12T08:17:41.947Z,5.60
2017-10-12T08:18:41.948Z,5.90
2017-10-12T08:19:41.950Z,5.40
2017-10-12T08:20:41.950Z,5.40
2017-10-12T08:21:41.951Z,6.10
2017-10-12T08:22:41.953Z,6.10
2017-10-12T08:23:41.953Z,5.90
2017-10-12T08:24:41.954Z,6.30
2017-10-12T08:25:41.952Z,5.80
2017-10-12T08:26:41.960Z,5.60
2017-10-12T08:27:41.955Z,5.90
2017-10-12T08:28:41.956Z,6.10
2017-10-12T08:29:41.960Z,6.10
2017-10-12T08:30:41.972Z,5.30
2017-10-12T08:31:41.965Z,5.70
2017-10-12T08:32:41.965Z,5.90
2017-10-12T08:33:41.964Z,5.70
2017-10-12T08:34:41.966Z,6.30
2017-10-12T08:35:41.966Z,5.70
2017-10-12T08:36:41.968Z,5.90
2017-10-12T08:37:41.972Z,5.20
2017-10-12T08:38:41.973Z,5.90
2017-10-12T08:39:41.974Z,5.90
2017-10-12T08:40:41.977Z,5.60
2017-10-12T08:41:41.982Z,5.50
2017-10-12T08:42:41.984Z,6.10
2017-10-12T08:43:41.987Z,6.00
2017-10-12T08:44:41.987Z,4.90
2017-10-12T08:45:41.990Z,5.70
2017-10-12T08:46:41.998Z,5.30
2017-10-12T08:47:41.996Z,5.80
2017-10-12T08:48:41.998Z,5.50
2017-10-12T08:49:41.995Z,5.60
2017-10-12T08:50:41.999Z,6.00
2017-10-12T08:51:41.999Z,5.30
2017-10-12T08:52:42.002Z,5.60
2017-10-12T08:53:42.004Z,5.90
2017-10-12T08:54:42.007Z,5.70
2017-10-12T08:55:42.011Z,5.50
2017-10-12T08:56:42.012Z,4.80
2017-10-12T08:57:42.018Z,5.30
2017-10-12T08:58:42.023Z,5.10
2017-10-12T08:59:42.025Z,5.60
2017-10-12T09:00:42.029Z,6.00
2017-10-12T09:01:42.032Z,5.50
2017-10-12T09:02:42.035Z,5.20
2017-10-12T09:03:42.040Z,5.50
2017-10-12T09:04:42.043Z,4.60
2017-10-12T09:05:42.044Z,5.10
2017-10-12T09:06:42.048Z,5.90
2017-10-12T09:07:42.076Z,5.60
2017-10-12T09:08:42.058Z,5.00
2017-10-12T09:09:42.062Z,5.30
2017-10-12T09:10:42.069Z,5.50
2017-10-12T09:11:42.072Z,6.00
2017-10-12T09:12:42.082Z,5.80
2017-10-12T09:13:42.103Z,5.40
2017-10-12T09:14:42.094Z,5.10
2017-10-12T09:15:42.100Z,5.10
2017-10-12T09:16:42.107Z,4.80
2017-10-12T09:17:42.113Z,5.20
2017-10-12T09:18:42.120Z,4.90
2017-10-12T09:19:42.128Z,5.00
2017-10-12T09:20:42.134Z,4.90
2017-10-12T09:21:42.139Z,4.90
2017-10-12T09:22:42.146Z,4.90
2017-10-12T09:23:42.161Z,4.70
2017-10-12T09:24:42.161Z,4.90
2017-10-12T09:25:42.169Z,5.10
2017-10-12T09:26:42.178Z,5.00
2017-10-12T09:27:42.184Z,5.40
2017-10-12T09:28:42.192Z,4.60
2017-10-12T09:29:42.205Z,4.60
2017-10-12T09:30:42.213Z,4.60
2017-10-12T09:31:42.221Z,4.70
2017-10-12T09:32:42.230Z,4.50
2017-10-12T09:33:42.235Z,4.50
2017-10-12T09:34:42.244Z,4.70
2017-10-12T09:35:42.255Z,4.40
2017-10-12T09:36:42.263Z,4.30
2017-10-12T09:37:42.276Z,4.30
2017-10-12T09:38:42.289Z,4.30
2017-10-12T09:39:42.299Z,4.80
2017-10-12T09:40:42.316Z,4.20
2017-10-12T09:41:42.320Z,4.40
2017-10-12T09:42:42.329Z,4.60
2017-10-12T09:43:42.342Z,4.70
2017-10-12T09:44:42.350Z,4.40
2017-10-12T09:45:42.357Z,4.90
2017-10-12T09:46:42.370Z,4.70
2017-10-12T09:47:42.395Z,4.50
2017-10-12T09:48:42.386Z,4.80
2017-10-12T09:49:42.398Z,4.80
2017-10-12T09:50:42.405Z,4.60
2017-10-12T09:51:42.415Z,4.40
2017-10-12T09:52:42.425Z,4.50
2017-10-12T09:53:42.438Z,4.40
2017-10-12T09:54:42.448Z,4.20
2017-10-12T09:55:42.457Z,4.30
2017-10-12T09:56:42.465Z,4.50
2017-10-12T09:57:42.476Z,4.40
2017-10-12T09:58:42.484Z,4.50
2017-10-12T09:59:42.494Z,4.60
2017-10-12T10:00:42.503Z,4.60
2017-10-12T10:01:42.508Z,4.80
2017-10-12T10:02:42.515Z,4.50
2017-10-12T10:03:42.526Z,4.90
2017-10-12T10:04:42.533Z,4.70
2017-10-12T10:05:42.541Z,4.20
2017-10-12T10:06:42.551Z,4.90
2017-10-12T10:07:42.559Z,4.60
2017-10-12T10:08:42.566Z,5.00
2017-10-12T10:09:42.578Z,4.20
2017-10-12T10:10:42.587Z,4.80
2017-10-12T10:11:42.594Z,4.70
2017-10-12T10:12:42.600Z,4.80
2017-10-12T10:13:42.609Z,4.50
2017-10-12T10:14:42.615Z,4.70
2017-10-12T10:15:42.633Z,4.30
2017-10-12T10:16:42.628Z,3.80
2017-10-12T10:17:42.631Z,4.10
2017-10-12T10:18:42.638Z,4.50
2017-10-12T10:19:42.645Z,4.10
2017-10-12T10:20:42.654Z,4.50
2017-10-12T10:21:42.658Z,4.40
2017-10-12T10:22:42.664Z,4.10
2017-10-12T10:23:42.672Z,4.40
2017-10-12T10:24:42.677Z,4.70
2017-10-12T10:25:42.688Z,4.40
2017-10-12T10:26:42.695Z,4.30
2017-10-12T10:27:42.701Z,5.00
2017-10-12T10:28:42.706Z,4.50
2017-10-12T10:29:42.713Z,4.30
2017-10-12T10:30:42.719Z,4.80
2017-10-12T10:31:42.726Z,4.50
2017-10-12T10:32:42.732Z,4.20
2017-10-12T10:33:42.731Z,4.40
2017-10-12T10:34:42.739Z,4.30
2017-10-12T10:35:42.745Z,3.90
2017-10-12T10:36:42.748Z,4.40
2017-10-12T10:37:42.760Z,4.20
2017-10-12T10:38:42.763Z,4.40
2017-10-12T10:39:42.769Z,4.50
2017-10-12T10:40:42.772Z,4.10
2017-10-12T10:41:42.773Z,4.00
2017-10-12T10:42:42.780Z,4.70
2017-10-12T10:43:42.789Z,3.90
2017-10-12T10:44:42.790Z,4.10
2017-10-12T10:45:42.795Z,3.80
2017-10-12T10:46:42.800Z,3.70
2017-10-12T10:47:42.806Z,3.90
2017-10-12T10:48:42.810Z,4.30
2017-10-12T10:49:42.819Z,4.00
2017-10-12T10:50:42.825Z,4.20
2017-10-12T10:51:42.830Z,3.60
2017-10-12T10:52:42.836Z,4.30
2017-10-12T10:53:42.840Z,4.30
2017-10-12T10:54:42.846Z,4.60
2017-10-12T10:55:42.851Z,4.30
2017-10-12T10:56:42.855Z,3.80
2017-10-12T10:57:42.857Z,4.00
2017-10-12T10:58:42.864Z,4.40
2017-10-12T10:59:42.868Z,4.30
2017-10-12T11:00:42.872Z,3.90
2017-10-12T11:01:42.878Z,3.90
2017-10-12T11:02:42.885Z,4.00
2017-10-12T11:03:42.891Z,4.20
2017-10-12T11:04:42.899Z,4.30
2017-10-12T11:05:42.905Z,3.90
2017-10-12T11:06:42.912Z,3.90
2017-10-12T11:07:42.920Z,4.00
2017-10-12T11:08:42.930Z,4.10
2017-10-12T11:09:42.931Z,3.90
2017-10-12T11:10:42.941Z,4.00
2017-10-12T11:11:42.945Z,4.10
2017-10-12T11:12:42.952Z,3.60
2017-10-12T11:13:42.956Z,4.20
2017-10-12T11:14:42.960Z,3.80
2017-10-12T11:15:42.967Z,4.20
2017-10-12T11:16:42.974Z,4.00
2017-10-12T11:17:42.985Z,3.60
2017-10-12T11:18:42.995Z,3.90
2017-10-12T11:19:42.993Z,3.60
2017-10-12T11:20:42.999Z,3.50
2017-10-12T11:21:43.009Z,4.60
2017-10-12T11:22:43.016Z,4.00
2017-10-12T11:23:43.023Z,3.90
2017-10-12T11:24:43.034Z,4.20
2017-10-12T11:25:43.034Z,3.40
2017-10-12T11:26:43.037Z,4.10
2017-10-12T11:27:43.044Z,3.50
2017-10-12T11:28:43.049Z,3.70
2017-10-12T11:29:43.049Z,3.60
2017-10-12T11:30:43.056Z,3.60
2017-10-12T11:31:43.061Z,3.50
2017-10-12T11:32:43.066Z,3.50
2017-10-12T11:33:43.070Z,3.30
2017-10-12T11:34:43.074Z,3.30
2017-10-12T11:35:43.080Z,3.30
2017-10-12T11:36:43.082Z,3.40
2017-10-12T11:37:43.092Z,3.30
2017-10-12T11:38:43.097Z,3.40
2017-10-12T11:39:43.103Z,3.10
2017-10-12T11:40:43.105Z,2.80
2017-10-12T11:41:43.113Z,3.30
2017-10-12T11:42:43.116Z,3.40
2017-10-12T11:43:43.121Z,3.40
2017-10-12T11:44:43.123Z,3.00
2017-10-12T11:45:43.126Z,3.20
2017-10-12T11:46:43.133Z,3.90
2017-10-12T11:47:43.133Z,3.60
2017-10-12T11:48:43.135Z,3.40
2017-10-12T11:49:43.139Z,3.50
2017-10-12T11:50:43.142Z,3.10
2017-10-12T11:51:43.161Z,3.60
2017-10-12T11:52:43.152Z,4.30
2017-10-12T11:53:43.159Z,3.30
2017-10-12T11:54:43.162Z,3.10
2017-10-12T11:55:43.166Z,3.00
2017-10-12T11:56:43.172Z,3.20
2017-10-12T11:57:43.174Z,3.50
2017-10-12T11:58:43.178Z,3.30
2017-10-12T11:59:43.181Z,3.50
2017-10-12T12:00:43.195Z,2.90
2017-10-12T12:01:43.185Z,3.60
2017-10-12T12:02:43.188Z,3.40
2017-10-12T12:03:43.193Z,3.30
2017-10-12T12:04:43.194Z,3.20
2017-10-12T12:05:43.197Z,3.10
2017-10-12T12:06:43.203Z,3.40
2017-10-12T12:07:43.206Z,3.20
2017-10-12T12:08:43.209Z,3.20
2017-10-12T12:09:43.216Z,3.10
2017-10-12T12:10:43.221Z,3.30
2017-10-12T12:11:43.225Z,3.50
2017-10-12T12:12:43.226Z,3.40
2017-10-12T12:13:43.229Z,3.30
2017-10-12T12:14:43.237Z,3.50
2017-10-12T12:15:43.237Z,3.00
2017-10-12T12:16:43.241Z,3.40
2017-10-12T12:17:43.246Z,3.50
2017-10-12T12:18:43.244Z,3.30
2017-10-12T12:19:43.247Z,3.00
2017-10-12T12:20:43.248Z,3.30
2017-10-12T12:21:43.258Z,3.60
2017-10-12T12:22:43.257Z,3.70
2017-10-12T12:23:43.259Z,3.10
2017-10-12T12:24:43.262Z,3.10
2017-10-12T12:25:43.268Z,3.20
2017-10-12T12:26:43.271Z,3.50
2017-10-12T12:27:43.275Z,3.50
2017-10-12T12:28:43.278Z,3.10
2017-10-12T12:29:43.280Z,3.40
2017-10-12T12:30:43.283Z,3.20
2017-10-12T12:31:43.287Z,2.90
2017-10-12T12:32:43.290Z,3.20
2017-10-12T12:33:43.287Z,2.60
2017-10-12T12:34:43.291Z,2.90
2017-10-12T12:35:43.300Z,3.20
2017-10-12T12:36:43.296Z,3.30
2017-10-12T12:37:43.300Z,3.60
2017-10-12T12:38:43.302Z,2.90
2017-10-12T12:39:43.305Z,3.10
2017-10-12T12:40:43.308Z,3.30
2017-10-12T12:41:43.315Z,3.00
2017-10-12T12:42:43.317Z,2.90
2017-10-12T12:43:43.319Z,3.10
2017-10-12T12:44:43.321Z,3.30
2017-10-12T12:45:43.322Z,3.10
2017-10-12T12:46:43.323Z,2.80
2017-10-12T12:47:43.325Z,3.10
2017-10-12T12:48:43.328Z,3.00
2017-10-12T12:49:43.335Z,3.20
2017-10-12T12:50:43.338Z,3.10
2017-10-12T12:51:43.339Z,3.50
2017-10-12T12:52:43.341Z,3.10
2017-10-12T12:53:43.343Z,3.20
2017-10-12T12:54:43.345Z,3.20
2017-10-12T12:55:43.348Z,2.90
2017-10-12T12:56:43.349Z,3.60
2017-10-12T12:57:43.347Z,2.70
2017-10-12T12:58:43.351Z,3.00
2017-10-12T12:59:43.352Z,3.00
2017-10-12T13:00:43.353Z,3.10
2017-10-12T13:01:43.355Z,3.00
2017-10-12T13:02:43.358Z,3.30
2017-10-12T13:03:43.360Z,3.20
2017-10-12T13:04:43.360Z,3.10
2017-10-12T13:05:43.367Z,3.40
2017-10-12T13:06:43.372Z,3.70
2017-10-12T13:07:43.372Z,3.40
2017-10-12T13:08:43.373Z,3.30
2017-10-12T13:09:43.379Z,3.30
2017-10-12T13:10:43.377Z,3.00
2017-10-12T13:11:43.378Z,3.30
2017-10-12T13:12:43.380Z,3.60
2017-10-12T13:13:43.378Z,3.60
2017-10-12T13:14:43.379Z,3.10
2017-10-12T13:15:43.382Z,3.00
2017-10-12T13:16:43.382Z,3.10
2017-10-12T13:17:43.392Z,3.00
2017-10-12T13:18:43.387Z,3.20